sensor_id;sensor_type;location;lat;lon;timestamp;temperature;humidity
16635;DHT22;8431;52.458;9.998;2023-05-07T00:00:16;9.30;99.90
16635;DHT22;8431;52.458;9.998;2023-05-07T00:02:44;9.20;99.90
16635;DHT22;8431;52.458;9.998;2023-05-07T00:05:11;9.30;99.90
16635;DHT22;8431;52.458;9.998;2023-05-07T00:07:38;9.30;99.90
16635;DHT22;8431;52.458;9.998;2023-05-07T00:10:06;9.30;99.90
16635;DHT22;8431;52.458;9.998;2023-05-07T00:12:34;9.30;99.90
16635;DHT22;8431;52.458;9.998;2023-05-07T00:15:01;9.30;99.90
16635;DHT22;8431;52.458;9.998;2023-05-07T00:17:30;9.20;99.90
16635;DHT22;8431;52.458;9.998;2023-05-07T00:19:57;9.30;99.90
16635;DHT22;8431;52.458;9.998;2023-05-07T00:22:24;9.30;99.90
16635;DHT22;8431;52.458;9.998;2023-05-07T00:24:51;9.20;99.90
16635;DHT22;8431;52.458;9.998;2023-05-07T00:27:21;9.30;99.90
16635;DHT22;8431;52.458;9.998;2023-05-07T00:29:48;9.30;99.90
16635;DHT22;8431;52.458;9.998;2023-05-07T00:32:15;9.30;99.90
16635;DHT22;8431;52.458;9.998;2023-05-07T00:34:43;9.30;99.90
16635;DHT22;8431;52.458;9.998;2023-05-07T00:37:10;9.20;99.90
16635;DHT22;8431;52.458;9.998;2023-05-07T00:39:37;9.20;99.90
16635;DHT22;8431;52.458;9.998;2023-05-07T00:42:05;9.30;99.90
16635;DHT22;8431;52.458;9.998;2023-05-07T00:44:32;9.30;99.90
16635;DHT22;8431;52.458;9.998;2023-05-07T00:47:02;9.30;99.90
16635;DHT22;8431;52.458;9.998;2023-05-07T00:49:35;9.20;99.90
16635;DHT22;8431;52.458;9.998;2023-05-07T00:52:06;9.20;99.90
16635;DHT22;8431;52.458;9.998;2023-05-07T00:54:34;9.20;99.90
16635;DHT22;8431;52.458;9.998;2023-05-07T00:57:02;9.20;99.90
16635;DHT22;8431;52.458;9.998;2023-05-07T00:59:30;9.20;99.90
16635;DHT22;8431;52.458;9.998;2023-05-07T01:01:58;9.20;99.90
16635;DHT22;8431;52.458;9.998;2023-05-07T01:04:26;9.20;99.90
16635;DHT22;8431;52.458;9.998;2023-05-07T01:06:55;9.20;99.90
16635;DHT22;8431;52.458;9.998;2023-05-07T01:09:25;9.20;99.90
16635;DHT22;8431;52.458;9.998;2023-05-07T01:11:53;9.20;99.90
16635;DHT22;8431;52.458;9.998;2023-05-07T01:14:20;9.20;99.90
16635;DHT22;8431;52.458;9.998;2023-05-07T01:16:48;9.30;99.90
16635;DHT22;8431;52.458;9.998;2023-05-07T01:19:18;9.20;99.90
16635;DHT22;8431;52.458;9.998;2023-05-07T01:21:47;9.20;99.90
16635;DHT22;8431;52.458;9.998;2023-05-07T01:24:16;9.20;99.90
16635;DHT22;8431;52.458;9.998;2023-05-07T01:26:43;9.20;99.90
16635;DHT22;8431;52.458;9.998;2023-05-07T01:29:11;9.20;99.90
16635;DHT22;8431;52.458;9.998;2023-05-07T01:31:38;9.30;99.90
16635;DHT22;8431;52.458;9.998;2023-05-07T01:34:08;9.20;99.90
16635;DHT22;8431;52.458;9.998;2023-05-07T01:36:37;9.20;99.90
16635;DHT22;8431;52.458;9.998;2023-05-07T01:39:06;9.30;99.90
16635;DHT22;8431;52.458;9.998;2023-05-07T01:41:35;9.20;99.90
16635;DHT22;8431;52.458;9.998;2023-05-07T01:44:03;9.30;99.90
16635;DHT22;8431;52.458;9.998;2023-05-07T01:46:31;9.20;99.90
16635;DHT22;8431;52.458;9.998;2023-05-07T01:48:59;9.20;99.90
16635;DHT22;8431;52.458;9.998;2023-05-07T01:51:26;9.30;99.90
16635;DHT22;8431;52.458;9.998;2023-05-07T01:53:53;9.30;99.90
16635;DHT22;8431;52.458;9.998;2023-05-07T01:56:21;9.30;99.90
16635;DHT22;8431;52.458;9.998;2023-05-07T01:58:49;9.30;99.90
16635;DHT22;8431;52.458;9.998;2023-05-07T02:01:18;9.30;99.90
16635;DHT22;8431;52.458;9.998;2023-05-07T02:03:45;9.30;99.90
16635;DHT22;8431;52.458;9.998;2023-05-07T02:06:12;9.20;99.90
16635;DHT22;8431;52.458;9.998;2023-05-07T02:08:39;9.30;99.90
16635;DHT22;8431;52.458;9.998;2023-05-07T02:11:06;9.30;99.90
16635;DHT22;8431;52.458;9.998;2023-05-07T02:13:33;9.30;99.90
16635;DHT22;8431;52.458;9.998;2023-05-07T02:16:03;9.20;99.90
16635;DHT22;8431;52.458;9.998;2023-05-07T02:18:30;9.20;99.90
16635;DHT22;8431;52.458;9.998;2023-05-07T02:20:57;9.30;99.90
16635;DHT22;8431;52.458;9.998;2023-05-07T02:23:24;9.20;99.90
16635;DHT22;8431;52.458;9.998;2023-05-07T02:25:51;9.20;99.90
16635;DHT22;8431;52.458;9.998;2023-05-07T02:28:18;9.20;99.90
16635;DHT22;8431;52.458;9.998;2023-05-07T02:30:45;9.30;99.90
16635;DHT22;8431;52.458;9.998;2023-05-07T02:33:13;9.30;99.90
16635;DHT22;8431;52.458;9.998;2023-05-07T02:35:41;9.20;99.90
16635;DHT22;8431;52.458;9.998;2023-05-07T02:38:08;9.30;99.90
16635;DHT22;8431;52.458;9.998;2023-05-07T02:40:36;9.20;99.90
16635;DHT22;8431;52.458;9.998;2023-05-07T02:43:06;9.20;99.90
16635;DHT22;8431;52.458;9.998;2023-05-07T02:45:33;9.20;99.90
16635;DHT22;8431;52.458;9.998;2023-05-07T02:48:00;9.10;99.90
16635;DHT22;8431;52.458;9.998;2023-05-07T02:50:28;9.10;99.90
16635;DHT22;8431;52.458;9.998;2023-05-07T02:52:55;9.10;99.90
16635;DHT22;8431;52.458;9.998;2023-05-07T02:55:22;9.10;99.90
16635;DHT22;8431;52.458;9.998;2023-05-07T02:57:49;9.10;99.90
16635;DHT22;8431;52.458;9.998;2023-05-07T03:00:17;9.10;99.90
16635;DHT22;8431;52.458;9.998;2023-05-07T03:02:45;9.10;99.90
16635;DHT22;8431;52.458;9.998;2023-05-07T03:05:12;9.10;99.90
16635;DHT22;8431;52.458;9.998;2023-05-07T03:07:41;9.10;99.90
16635;DHT22;8431;52.458;9.998;2023-05-07T03:10:10;9.10;99.90
16635;DHT22;8431;52.458;9.998;2023-05-07T03:12:38;9.10;99.90
16635;DHT22;8431;52.458;9.998;2023-05-07T03:15:05;9.10;99.90
16635;DHT22;8431;52.458;9.998;2023-05-07T03:17:33;9.10;99.90
16635;DHT22;8431;52.458;9.998;2023-05-07T03:20:00;9.10;99.90
16635;DHT22;8431;52.458;9.998;2023-05-07T03:22:27;9.10;99.90
16635;DHT22;8431;52.458;9.998;2023-05-07T03:24:56;9.10;99.90
16635;DHT22;8431;52.458;9.998;2023-05-07T03:27:23;9.10;99.90
16635;DHT22;8431;52.458;9.998;2023-05-07T03:29:50;9.10;99.90
16635;DHT22;8431;52.458;9.998;2023-05-07T03:32:17;9.10;99.90
16635;DHT22;8431;52.458;9.998;2023-05-07T03:34:44;9.20;99.90
16635;DHT22;8431;52.458;9.998;2023-05-07T03:37:11;9.10;99.90
16635;DHT22;8431;52.458;9.998;2023-05-07T03:39:38;9.10;99.90
16635;DHT22;8431;52.458;9.998;2023-05-07T03:42:06;9.10;99.90
16635;DHT22;8431;52.458;9.998;2023-05-07T03:44:33;9.10;99.90
16635;DHT22;8431;52.458;9.998;2023-05-07T03:47:01;9.10;99.90
16635;DHT22;8431;52.458;9.998;2023-05-07T03:49:28;9.10;99.90
16635;DHT22;8431;52.458;9.998;2023-05-07T03:51:55;9.10;99.90
16635;DHT22;8431;52.458;9.998;2023-05-07T03:54:23;9.00;99.90
16635;DHT22;8431;52.458;9.998;2023-05-07T03:56:50;9.10;99.90
16635;DHT22;8431;52.458;9.998;2023-05-07T03:59:18;9.10;99.90
16635;DHT22;8431;52.458;9.998;2023-05-07T04:01:45;9.00;99.90
16635;DHT22;8431;52.458;9.998;2023-05-07T04:04:12;9.00;99.90
16635;DHT22;8431;52.458;9.998;2023-05-07T04:06:39;9.00;99.90
16635;DHT22;8431;52.458;9.998;2023-05-07T04:09:06;9.00;99.90
16635;DHT22;8431;52.458;9.998;2023-05-07T04:11:34;9.00;99.90
16635;DHT22;8431;52.458;9.998;2023-05-07T04:14:02;9.00;99.90
16635;DHT22;8431;52.458;9.998;2023-05-07T04:16:30;9.00;99.90
16635;DHT22;8431;52.458;9.998;2023-05-07T04:18:57;9.00;99.90
16635;DHT22;8431;52.458;9.998;2023-05-07T04:21:24;9.10;99.90
16635;DHT22;8431;52.458;9.998;2023-05-07T04:23:52;9.00;99.90
16635;DHT22;8431;52.458;9.998;2023-05-07T04:26:18;9.10;99.90
16635;DHT22;8431;52.458;9.998;2023-05-07T04:28:46;9.00;99.90
16635;DHT22;8431;52.458;9.998;2023-05-07T04:31:13;9.10;99.90
16635;DHT22;8431;52.458;9.998;2023-05-07T04:33:42;9.10;99.90
16635;DHT22;8431;52.458;9.998;2023-05-07T04:36:09;9.10;99.90
16635;DHT22;8431;52.458;9.998;2023-05-07T04:38:36;9.10;99.90
16635;DHT22;8431;52.458;9.998;2023-05-07T04:41:05;9.10;99.90
16635;DHT22;8431;52.458;9.998;2023-05-07T04:43:32;9.10;99.90
16635;DHT22;8431;52.458;9.998;2023-05-07T04:45:59;9.00;99.90
16635;DHT22;8431;52.458;9.998;2023-05-07T04:48:26;9.10;99.90
16635;DHT22;8431;52.458;9.998;2023-05-07T04:50:55;9.10;99.90
16635;DHT22;8431;52.458;9.998;2023-05-07T04:53:22;9.10;99.90
16635;DHT22;8431;52.458;9.998;2023-05-07T04:55:55;9.10;99.90
16635;DHT22;8431;52.458;9.998;2023-05-07T04:58:23;9.10;99.90
16635;DHT22;8431;52.458;9.998;2023-05-07T05:00:50;9.10;99.90
16635;DHT22;8431;52.458;9.998;2023-05-07T05:03:17;9.10;99.90
16635;DHT22;8431;52.458;9.998;2023-05-07T05:05:44;9.10;99.90
16635;DHT22;8431;52.458;9.998;2023-05-07T05:08:13;9.00;99.90
16635;DHT22;8431;52.458;9.998;2023-05-07T05:10:40;9.20;99.90
16635;DHT22;8431;52.458;9.998;2023-05-07T05:13:08;9.20;99.90
16635;DHT22;8431;52.458;9.998;2023-05-07T05:15:38;9.20;99.90
16635;DHT22;8431;52.458;9.998;2023-05-07T05:18:05;9.20;99.90
16635;DHT22;8431;52.458;9.998;2023-05-07T05:20:32;9.20;99.90
16635;DHT22;8431;52.458;9.998;2023-05-07T05:22:59;9.30;99.90
16635;DHT22;8431;52.458;9.998;2023-05-07T05:25:27;9.20;99.90
16635;DHT22;8431;52.458;9.998;2023-05-07T05:27:54;9.30;99.90
16635;DHT22;8431;52.458;9.998;2023-05-07T05:30:21;9.30;99.90
16635;DHT22;8431;52.458;9.998;2023-05-07T05:32:48;9.30;99.90
16635;DHT22;8431;52.458;9.998;2023-05-07T05:35:15;9.30;99.90
16635;DHT22;8431;52.458;9.998;2023-05-07T05:37:42;9.30;99.90
16635;DHT22;8431;52.458;9.998;2023-05-07T05:40:10;9.50;99.90
16635;DHT22;8431;52.458;9.998;2023-05-07T05:42:38;9.40;99.90
16635;DHT22;8431;52.458;9.998;2023-05-07T05:45:06;9.40;99.90
16635;DHT22;8431;52.458;9.998;2023-05-07T05:47:33;9.50;99.90
16635;DHT22;8431;52.458;9.998;2023-05-07T05:50:00;9.60;99.90
16635;DHT22;8431;52.458;9.998;2023-05-07T05:52:34;9.70;99.90
16635;DHT22;8431;52.458;9.998;2023-05-07T05:55:01;9.80;99.90
16635;DHT22;8431;52.458;9.998;2023-05-07T05:57:28;9.90;99.90
16635;DHT22;8431;52.458;9.998;2023-05-07T05:59:56;9.90;99.90
16635;DHT22;8431;52.458;9.998;2023-05-07T06:02:23;9.80;99.90
16635;DHT22;8431;52.458;9.998;2023-05-07T06:04:50;10.00;99.90
16635;DHT22;8431;52.458;9.998;2023-05-07T06:07:17;10.20;99.90
16635;DHT22;8431;52.458;9.998;2023-05-07T06:09:44;10.10;99.90
16635;DHT22;8431;52.458;9.998;2023-05-07T06:12:11;10.30;99.90
16635;DHT22;8431;52.458;9.998;2023-05-07T06:14:38;10.10;99.90
16635;DHT22;8431;52.458;9.998;2023-05-07T06:17:07;10.30;99.90
16635;DHT22;8431;52.458;9.998;2023-05-07T06:19:34;10.20;99.90
16635;DHT22;8431;52.458;9.998;2023-05-07T06:22:01;10.10;99.90
16635;DHT22;8431;52.458;9.998;2023-05-07T06:24:28;10.10;99.90
16635;DHT22;8431;52.458;9.998;2023-05-07T06:26:55;10.00;99.90
16635;DHT22;8431;52.458;9.998;2023-05-07T06:29:24;10.20;99.90
16635;DHT22;8431;52.458;9.998;2023-05-07T06:31:51;10.30;99.90
16635;DHT22;8431;52.458;9.998;2023-05-07T06:34:19;10.40;99.90
16635;DHT22;8431;52.458;9.998;2023-05-07T06:36:47;10.30;99.90
16635;DHT22;8431;52.458;9.998;2023-05-07T06:39:13;10.40;99.90
16635;DHT22;8431;52.458;9.998;2023-05-07T06:41:41;10.30;99.90
16635;DHT22;8431;52.458;9.998;2023-05-07T06:44:08;10.40;99.90
16635;DHT22;8431;52.458;9.998;2023-05-07T06:46:34;10.60;99.90
16635;DHT22;8431;52.458;9.998;2023-05-07T06:49:01;10.60;99.90
16635;DHT22;8431;52.458;9.998;2023-05-07T06:51:30;10.60;99.90
16635;DHT22;8431;52.458;9.998;2023-05-07T06:53:57;10.60;99.90
16635;DHT22;8431;52.458;9.998;2023-05-07T06:56:24;10.60;99.90
16635;DHT22;8431;52.458;9.998;2023-05-07T06:58:51;10.70;99.90
16635;DHT22;8431;52.458;9.998;2023-05-07T07:01:21;10.60;99.90
16635;DHT22;8431;52.458;9.998;2023-05-07T07:03:48;10.60;99.90
16635;DHT22;8431;52.458;9.998;2023-05-07T07:06:16;10.70;99.90
16635;DHT22;8431;52.458;9.998;2023-05-07T07:08:45;10.60;99.90
16635;DHT22;8431;52.458;9.998;2023-05-07T07:11:12;10.70;99.90
16635;DHT22;8431;52.458;9.998;2023-05-07T07:13:39;10.70;99.90
16635;DHT22;8431;52.458;9.998;2023-05-07T07:16:07;10.70;99.90
16635;DHT22;8431;52.458;9.998;2023-05-07T07:18:34;10.70;99.90
16635;DHT22;8431;52.458;9.998;2023-05-07T07:21:13;10.70;99.90
16635;DHT22;8431;52.458;9.998;2023-05-07T07:23:40;10.80;99.90
16635;DHT22;8431;52.458;9.998;2023-05-07T07:26:09;10.70;99.90
16635;DHT22;8431;52.458;9.998;2023-05-07T07:28:42;10.70;99.90
16635;DHT22;8431;52.458;9.998;2023-05-07T07:31:09;10.60;99.90
16635;DHT22;8431;52.458;9.998;2023-05-07T07:33:36;11.00;99.90
16635;DHT22;8431;52.458;9.998;2023-05-07T07:36:04;10.90;99.90
16635;DHT22;8431;52.458;9.998;2023-05-07T07:38:31;10.90;99.90
16635;DHT22;8431;52.458;9.998;2023-05-07T07:40:59;11.00;99.90
16635;DHT22;8431;52.458;9.998;2023-05-07T07:43:27;11.20;99.90
16635;DHT22;8431;52.458;9.998;2023-05-07T07:45:54;11.20;99.90
16635;DHT22;8431;52.458;9.998;2023-05-07T07:48:21;11.20;99.90
16635;DHT22;8431;52.458;9.998;2023-05-07T07:50:49;11.10;99.90
16635;DHT22;8431;52.458;9.998;2023-05-07T07:53:16;11.20;99.90
16635;DHT22;8431;52.458;9.998;2023-05-07T07:55:44;11.20;99.90
16635;DHT22;8431;52.458;9.998;2023-05-07T07:58:11;11.20;99.90
16635;DHT22;8431;52.458;9.998;2023-05-07T08:00:40;11.10;99.90
16635;DHT22;8431;52.458;9.998;2023-05-07T08:03:09;11.00;99.90
16635;DHT22;8431;52.458;9.998;2023-05-07T08:05:36;11.30;99.90
16635;DHT22;8431;52.458;9.998;2023-05-07T08:08:04;11.30;99.90
16635;DHT22;8431;52.458;9.998;2023-05-07T08:10:32;11.30;99.90
16635;DHT22;8431;52.458;9.998;2023-05-07T08:13:01;11.60;99.90
16635;DHT22;8431;52.458;9.998;2023-05-07T08:15:29;11.20;99.90
16635;DHT22;8431;52.458;9.998;2023-05-07T08:17:58;11.40;99.90
16635;DHT22;8431;52.458;9.998;2023-05-07T08:20:26;11.50;99.90
16635;DHT22;8431;52.458;9.998;2023-05-07T08:22:53;11.90;99.90
16635;DHT22;8431;52.458;9.998;2023-05-07T08:25:19;11.90;99.90
16635;DHT22;8431;52.458;9.998;2023-05-07T08:27:52;12.20;99.90
16635;DHT22;8431;52.458;9.998;2023-05-07T08:30:36;12.10;99.90
16635;DHT22;8431;52.458;9.998;2023-05-07T08:33:12;12.00;99.90
16635;DHT22;8431;52.458;9.998;2023-05-07T08:35:39;11.90;99.90
16635;DHT22;8431;52.458;9.998;2023-05-07T08:38:06;12.00;99.90
16635;DHT22;8431;52.458;9.998;2023-05-07T08:40:37;12.10;99.90
16635;DHT22;8431;52.458;9.998;2023-05-07T08:43:05;12.20;99.90
16635;DHT22;8431;52.458;9.998;2023-05-07T08:45:34;12.30;99.90
16635;DHT22;8431;52.458;9.998;2023-05-07T08:48:09;12.40;99.90
16635;DHT22;8431;52.458;9.998;2023-05-07T08:50:43;12.40;99.90
16635;DHT22;8431;52.458;9.998;2023-05-07T08:53:10;12.50;99.90
16635;DHT22;8431;52.458;9.998;2023-05-07T08:55:37;12.50;99.90
16635;DHT22;8431;52.458;9.998;2023-05-07T08:58:04;12.30;99.90
16635;DHT22;8431;52.458;9.998;2023-05-07T09:00:32;12.40;99.90
16635;DHT22;8431;52.458;9.998;2023-05-07T09:03:00;12.20;99.90
16635;DHT22;8431;52.458;9.998;2023-05-07T09:05:27;12.40;99.90
16635;DHT22;8431;52.458;9.998;2023-05-07T09:07:58;12.40;99.90
16635;DHT22;8431;52.458;9.998;2023-05-07T09:10:26;12.80;99.90
16635;DHT22;8431;52.458;9.998;2023-05-07T09:12:52;12.50;99.90
16635;DHT22;8431;52.458;9.998;2023-05-07T09:15:20;12.30;99.90
16635;DHT22;8431;52.458;9.998;2023-05-07T09:17:47;12.30;99.90
16635;DHT22;8431;52.458;9.998;2023-05-07T09:20:14;12.50;99.90
16635;DHT22;8431;52.458;9.998;2023-05-07T09:22:43;12.50;99.90
16635;DHT22;8431;52.458;9.998;2023-05-07T09:25:12;13.00;99.90
16635;DHT22;8431;52.458;9.998;2023-05-07T09:27:42;13.20;99.90
16635;DHT22;8431;52.458;9.998;2023-05-07T09:30:10;13.10;99.90
16635;DHT22;8431;52.458;9.998;2023-05-07T09:32:38;13.40;99.90
16635;DHT22;8431;52.458;9.998;2023-05-07T09:35:06;13.80;99.90
16635;DHT22;8431;52.458;9.998;2023-05-07T09:37:40;14.10;99.90
16635;DHT22;8431;52.458;9.998;2023-05-07T09:40:09;13.30;99.90
16635;DHT22;8431;52.458;9.998;2023-05-07T09:42:48;13.40;99.90
16635;DHT22;8431;52.458;9.998;2023-05-07T09:45:15;13.40;99.90
16635;DHT22;8431;52.458;9.998;2023-05-07T09:47:43;13.50;99.90
16635;DHT22;8431;52.458;9.998;2023-05-07T09:50:12;13.70;99.90
16635;DHT22;8431;52.458;9.998;2023-05-07T09:52:42;13.50;99.90
16635;DHT22;8431;52.458;9.998;2023-05-07T09:55:11;13.80;99.90
16635;DHT22;8431;52.458;9.998;2023-05-07T09:57:39;14.10;99.90
16635;DHT22;8431;52.458;9.998;2023-05-07T10:00:09;14.10;99.90
16635;DHT22;8431;52.458;9.998;2023-05-07T10:02:39;14.30;99.90
16635;DHT22;8431;52.458;9.998;2023-05-07T10:05:12;14.40;99.90
16635;DHT22;8431;52.458;9.998;2023-05-07T10:07:40;14.20;99.90
16635;DHT22;8431;52.458;9.998;2023-05-07T10:10:08;15.00;99.90
16635;DHT22;8431;52.458;9.998;2023-05-07T10:12:35;14.60;99.90
16635;DHT22;8431;52.458;9.998;2023-05-07T10:15:11;14.70;99.90
16635;DHT22;8431;52.458;9.998;2023-05-07T10:17:45;14.60;99.90
16635;DHT22;8431;52.458;9.998;2023-05-07T10:20:14;14.70;99.90
16635;DHT22;8431;52.458;9.998;2023-05-07T10:22:45;14.10;99.90
16635;DHT22;8431;52.458;9.998;2023-05-07T10:25:15;14.00;99.90
16635;DHT22;8431;52.458;9.998;2023-05-07T10:27:45;13.90;99.90
16635;DHT22;8431;52.458;9.998;2023-05-07T10:30:21;14.10;99.90
16635;DHT22;8431;52.458;9.998;2023-05-07T10:32:56;13.60;99.90
16635;DHT22;8431;52.458;9.998;2023-05-07T10:35:32;13.60;99.90
16635;DHT22;8431;52.458;9.998;2023-05-07T10:38:03;13.50;99.90
16635;DHT22;8431;52.458;9.998;2023-05-07T10:40:30;13.60;99.90
16635;DHT22;8431;52.458;9.998;2023-05-07T10:42:58;14.00;99.90
16635;DHT22;8431;52.458;9.998;2023-05-07T10:45:28;13.90;99.90
16635;DHT22;8431;52.458;9.998;2023-05-07T10:48:09;14.20;99.90
16635;DHT22;8431;52.458;9.998;2023-05-07T10:50:37;14.20;99.90
16635;DHT22;8431;52.458;9.998;2023-05-07T10:53:22;14.00;99.90
16635;DHT22;8431;52.458;9.998;2023-05-07T10:56:23;14.40;99.90
16635;DHT22;8431;52.458;9.998;2023-05-07T10:58:39;14.80;99.90
16635;DHT22;8431;52.458;9.998;2023-05-07T11:01:07;14.70;99.90
16635;DHT22;8431;52.458;9.998;2023-05-07T11:06:39;14.80;99.90
16635;DHT22;8431;52.458;9.998;2023-05-07T11:09:07;14.10;99.90
16635;DHT22;8431;52.458;9.998;2023-05-07T11:11:55;14.00;99.90
16635;DHT22;8431;52.458;9.998;2023-05-07T11:17:15;14.40;99.90
16635;DHT22;8431;52.458;9.998;2023-05-07T11:19:49;14.30;99.90
16635;DHT22;8431;52.458;9.998;2023-05-07T11:22:36;14.50;99.90
16635;DHT22;8431;52.458;9.998;2023-05-07T11:25:08;14.20;99.90
16635;DHT22;8431;52.458;9.998;2023-05-07T11:27:55;14.40;99.90
16635;DHT22;8431;52.458;9.998;2023-05-07T11:30:24;14.10;99.90
16635;DHT22;8431;52.458;9.998;2023-05-07T11:32:52;14.20;99.90
16635;DHT22;8431;52.458;9.998;2023-05-07T11:35:23;14.20;99.90
16635;DHT22;8431;52.458;9.998;2023-05-07T11:37:57;14.40;99.90
16635;DHT22;8431;52.458;9.998;2023-05-07T11:40:24;14.10;99.90
16635;DHT22;8431;52.458;9.998;2023-05-07T11:42:51;14.00;99.90
16635;DHT22;8431;52.458;9.998;2023-05-07T11:45:24;13.80;99.90
16635;DHT22;8431;52.458;9.998;2023-05-07T11:47:54;14.00;99.90
16635;DHT22;8431;52.458;9.998;2023-05-07T11:50:26;14.40;99.90
16635;DHT22;8431;52.458;9.998;2023-05-07T11:52:53;14.50;99.90
16635;DHT22;8431;52.458;9.998;2023-05-07T11:55:20;14.20;99.90
16635;DHT22;8431;52.458;9.998;2023-05-07T11:57:49;13.90;99.90
16635;DHT22;8431;52.458;9.998;2023-05-07T12:00:18;14.20;99.90
16635;DHT22;8431;52.458;9.998;2023-05-07T12:02:45;14.20;99.90
16635;DHT22;8431;52.458;9.998;2023-05-07T12:05:14;14.30;99.90
16635;DHT22;8431;52.458;9.998;2023-05-07T12:07:41;14.40;99.90
16635;DHT22;8431;52.458;9.998;2023-05-07T12:10:09;15.10;99.90
16635;DHT22;8431;52.458;9.998;2023-05-07T12:12:41;14.70;99.90
16635;DHT22;8431;52.458;9.998;2023-05-07T12:15:09;15.00;99.90
16635;DHT22;8431;52.458;9.998;2023-05-07T12:17:37;15.40;99.90
16635;DHT22;8431;52.458;9.998;2023-05-07T12:20:05;15.80;99.90
16635;DHT22;8431;52.458;9.998;2023-05-07T12:22:34;15.80;99.90
16635;DHT22;8431;52.458;9.998;2023-05-07T12:25:02;15.30;99.90
16635;DHT22;8431;52.458;9.998;2023-05-07T12:27:30;14.90;99.90
16635;DHT22;8431;52.458;9.998;2023-05-07T12:29:57;14.60;99.90
16635;DHT22;8431;52.458;9.998;2023-05-07T12:32:44;14.60;99.90
16635;DHT22;8431;52.458;9.998;2023-05-07T12:35:12;14.80;99.90
16635;DHT22;8431;52.458;9.998;2023-05-07T12:37:40;14.90;99.90
16635;DHT22;8431;52.458;9.998;2023-05-07T12:40:36;14.90;99.90
16635;DHT22;8431;52.458;9.998;2023-05-07T12:43:04;15.10;99.90
16635;DHT22;8431;52.458;9.998;2023-05-07T12:45:37;15.00;99.90
16635;DHT22;8431;52.458;9.998;2023-05-07T12:48:10;14.90;99.90
16635;DHT22;8431;52.458;9.998;2023-05-07T12:50:37;15.00;99.90
16635;DHT22;8431;52.458;9.998;2023-05-07T12:53:06;15.10;99.90
16635;DHT22;8431;52.458;9.998;2023-05-07T12:55:55;15.30;99.90
16635;DHT22;8431;52.458;9.998;2023-05-07T12:58:41;15.40;99.90
16635;DHT22;8431;52.458;9.998;2023-05-07T13:01:30;15.00;99.90
16635;DHT22;8431;52.458;9.998;2023-05-07T13:04:16;14.60;99.90
16635;DHT22;8431;52.458;9.998;2023-05-07T13:07:02;15.00;99.90
16635;DHT22;8431;52.458;9.998;2023-05-07T13:09:50;14.80;99.90
16635;DHT22;8431;52.458;9.998;2023-05-07T13:12:35;14.80;99.90
16635;DHT22;8431;52.458;9.998;2023-05-07T13:15:22;14.80;99.90
16635;DHT22;8431;52.458;9.998;2023-05-07T13:17:49;14.30;99.90
16635;DHT22;8431;52.458;9.998;2023-05-07T13:20:17;14.40;99.90
16635;DHT22;8431;52.458;9.998;2023-05-07T13:22:44;14.20;99.90
16635;DHT22;8431;52.458;9.998;2023-05-07T13:25:12;14.60;99.90
16635;DHT22;8431;52.458;9.998;2023-05-07T13:27:56;14.80;99.90
16635;DHT22;8431;52.458;9.998;2023-05-07T13:30:24;14.40;99.90
16635;DHT22;8431;52.458;9.998;2023-05-07T13:32:55;14.20;99.90
16635;DHT22;8431;52.458;9.998;2023-05-07T13:35:23;14.20;99.90
16635;DHT22;8431;52.458;9.998;2023-05-07T13:37:50;14.20;99.90
16635;DHT22;8431;52.458;9.998;2023-05-07T13:40:19;14.10;99.90
16635;DHT22;8431;52.458;9.998;2023-05-07T13:42:46;14.10;99.90
16635;DHT22;8431;52.458;9.998;2023-05-07T13:45:18;13.90;99.90
16635;DHT22;8431;52.458;9.998;2023-05-07T13:47:59;13.90;99.90
16635;DHT22;8431;52.458;9.998;2023-05-07T13:50:33;14.20;99.90
16635;DHT22;8431;52.458;9.998;2023-05-07T13:53:03;15.00;99.90
16635;DHT22;8431;52.458;9.998;2023-05-07T13:55:32;15.50;99.90
16635;DHT22;8431;52.458;9.998;2023-05-07T13:58:02;15.40;99.90
16635;DHT22;8431;52.458;9.998;2023-05-07T14:00:29;15.80;99.90
16635;DHT22;8431;52.458;9.998;2023-05-07T14:02:56;15.50;99.90
16635;DHT22;8431;52.458;9.998;2023-05-07T14:05:24;15.40;99.90
16635;DHT22;8431;52.458;9.998;2023-05-07T14:07:52;15.60;99.90
16635;DHT22;8431;52.458;9.998;2023-05-07T14:10:19;15.40;99.90
16635;DHT22;8431;52.458;9.998;2023-05-07T14:12:47;15.10;99.90
16635;DHT22;8431;52.458;9.998;2023-05-07T14:15:15;15.00;99.90
16635;DHT22;8431;52.458;9.998;2023-05-07T14:17:42;15.40;99.90
16635;DHT22;8431;52.458;9.998;2023-05-07T14:20:11;15.90;99.90
16635;DHT22;8431;52.458;9.998;2023-05-07T14:22:38;15.50;99.90
16635;DHT22;8431;52.458;9.998;2023-05-07T14:25:24;15.60;99.90
16635;DHT22;8431;52.458;9.998;2023-05-07T14:28:11;15.70;99.90
16635;DHT22;8431;52.458;9.998;2023-05-07T14:30:57;15.70;99.90
16635;DHT22;8431;52.458;9.998;2023-05-07T14:33:42;15.40;99.90
16635;DHT22;8431;52.458;9.998;2023-05-07T14:36:28;15.20;99.90
16635;DHT22;8431;52.458;9.998;2023-05-07T14:39:15;15.10;99.90
16635;DHT22;8431;52.458;9.998;2023-05-07T14:42:01;15.20;99.90
16635;DHT22;8431;52.458;9.998;2023-05-07T14:44:48;15.20;99.90
16635;DHT22;8431;52.458;9.998;2023-05-07T14:47:34;15.10;99.90
16635;DHT22;8431;52.458;9.998;2023-05-07T14:50:20;15.50;99.90
16635;DHT22;8431;52.458;9.998;2023-05-07T14:52:53;15.50;99.90
16635;DHT22;8431;52.458;9.998;2023-05-07T14:55:20;15.90;99.90
16635;DHT22;8431;52.458;9.998;2023-05-07T14:57:47;15.90;99.90
16635;DHT22;8431;52.458;9.998;2023-05-07T15:00:16;15.60;99.90
16635;DHT22;8431;52.458;9.998;2023-05-07T15:02:43;15.40;99.90
16635;DHT22;8431;52.458;9.998;2023-05-07T15:05:10;15.50;99.90
16635;DHT22;8431;52.458;9.998;2023-05-07T15:07:37;15.50;99.90
16635;DHT22;8431;52.458;9.998;2023-05-07T15:10:05;15.50;99.90
16635;DHT22;8431;52.458;9.998;2023-05-07T15:12:33;15.90;99.90
16635;DHT22;8431;52.458;9.998;2023-05-07T15:15:21;15.20;99.90
16635;DHT22;8431;52.458;9.998;2023-05-07T15:17:48;15.00;99.90
16635;DHT22;8431;52.458;9.998;2023-05-07T15:20:15;15.00;99.90
16635;DHT22;8431;52.458;9.998;2023-05-07T15:22:43;14.70;99.90
16635;DHT22;8431;52.458;9.998;2023-05-07T15:25:10;14.60;99.90
16635;DHT22;8431;52.458;9.998;2023-05-07T15:27:37;14.80;99.90
16635;DHT22;8431;52.458;9.998;2023-05-07T15:30:05;15.00;99.90
16635;DHT22;8431;52.458;9.998;2023-05-07T15:32:52;15.20;99.90
16635;DHT22;8431;52.458;9.998;2023-05-07T15:35:38;15.40;99.90
16635;DHT22;8431;52.458;9.998;2023-05-07T15:38:24;15.40;99.90
16635;DHT22;8431;52.458;9.998;2023-05-07T15:40:51;15.50;99.90
16635;DHT22;8431;52.458;9.998;2023-05-07T15:43:18;15.30;99.90
16635;DHT22;8431;52.458;9.998;2023-05-07T15:45:49;15.60;99.90
16635;DHT22;8431;52.458;9.998;2023-05-07T15:48:17;15.10;99.90
16635;DHT22;8431;52.458;9.998;2023-05-07T15:50:45;14.80;99.90
16635;DHT22;8431;52.458;9.998;2023-05-07T15:53:12;14.90;99.90
16635;DHT22;8431;52.458;9.998;2023-05-07T15:55:39;15.10;99.90
16635;DHT22;8431;52.458;9.998;2023-05-07T15:58:07;15.10;99.90
16635;DHT22;8431;52.458;9.998;2023-05-07T16:00:34;15.00;99.90
16635;DHT22;8431;52.458;9.998;2023-05-07T16:03:02;14.90;99.90
16635;DHT22;8431;52.458;9.998;2023-05-07T16:05:30;14.70;99.90
16635;DHT22;8431;52.458;9.998;2023-05-07T16:07:57;14.60;99.90
16635;DHT22;8431;52.458;9.998;2023-05-07T16:10:28;14.60;99.90
16635;DHT22;8431;52.458;9.998;2023-05-07T16:12:55;14.90;99.90